createdAt,value
2017-10-21T00:01:21.763Z,24.27
2017-10-21T00:03:48.531Z,29.33
2017-10-21T00:06:14.745Z,26.37
2017-10-21T00:08:40.943Z,27.30
2017-10-21T00:11:08.931Z,23.00
2017-10-21T00:13:35.671Z,23.98
2017-10-21T00:16:02.840Z,34.22
2017-10-21T00:18:29.327Z,34.63
2017-10-21T00:20:56.988Z,29.63
2017-10-21T00:23:23.259Z,25.98
2017-10-21T00:25:50.320Z,32.35
2017-10-21T00:28:17.510Z,34.00
2017-10-21T00:30:44.493Z,28.65
2017-10-21T00:33:11.441Z,33.85
2017-10-21T00:35:38.229Z,28.70
2017-10-21T00:38:04.500Z,27.10
2017-10-21T00:40:30.949Z,25.98
2017-10-21T00:42:57.805Z,31.75
2017-10-21T00:45:25.073Z,30.10
2017-10-21T00:47:51.820Z,25.80
2017-10-21T00:50:19.348Z,27.77
2017-10-21T00:52:46.550Z,29.02
2017-10-21T00:55:13.516Z,25.75
2017-10-21T00:57:40.665Z,24.35
2017-10-21T01:00:07.977Z,33.25
2017-10-21T01:02:34.827Z,28.73
2017-10-21T01:05:01.586Z,29.12
2017-10-21T01:07:29.128Z,25.80
2017-10-21T01:09:55.396Z,24.58
2017-10-21T01:12:22.238Z,26.77
2017-10-21T01:14:49.281Z,24.58
2017-10-21T01:17:16.072Z,24.75
2017-10-21T01:19:42.544Z,29.50
2017-10-21T01:22:10.134Z,27.42
2017-10-21T01:24:36.651Z,25.95
2017-10-21T01:27:03.901Z,31.50
2017-10-21T01:29:30.128Z,25.70
2017-10-21T01:31:56.903Z,31.50
2017-10-21T01:34:23.131Z,28.67
2017-10-21T01:36:50.148Z,30.10
2017-10-21T01:39:18.153Z,25.62
2017-10-21T01:41:44.496Z,26.12
2017-10-21T01:44:10.739Z,27.55
2017-10-21T01:46:37.530Z,27.45
2017-10-21T01:49:05.130Z,32.25
2017-10-21T01:51:32.890Z,33.13
2017-10-21T01:53:59.132Z,33.10
2017-10-21T01:56:25.362Z,28.17
2017-10-21T01:58:52.119Z,27.58
2017-10-21T02:01:20.145Z,22.48
2017-10-21T02:03:47.546Z,25.58
2017-10-21T02:06:15.118Z,31.10
2017-10-21T02:08:41.349Z,31.05
2017-10-21T02:11:07.898Z,26.95
2017-10-21T02:13:34.770Z,25.60
2017-10-21T02:16:01.986Z,30.58
2017-10-21T02:18:28.241Z,23.35
2017-10-21T02:20:54.997Z,31.58
2017-10-21T02:23:21.863Z,21.65
2017-10-21T02:25:48.846Z,23.58
2017-10-21T02:28:15.663Z,25.60
2017-10-21T02:30:43.032Z,22.50
2017-10-21T02:33:09.833Z,28.73
2017-10-21T02:35:36.071Z,26.35
2017-10-21T02:38:03.048Z,25.80
2017-10-21T02:40:29.319Z,27.85
2017-10-21T02:42:56.115Z,23.23
2017-10-21T02:45:22.528Z,29.20
2017-10-21T02:47:49.499Z,26.45
2017-10-21T02:50:16.657Z,30.40
2017-10-21T02:52:43.486Z,31.40
2017-10-21T02:55:09.739Z,27.90
2017-10-21T02:57:36.607Z,29.98
2017-10-21T03:00:03.324Z,25.70
2017-10-21T03:02:29.619Z,26.20
2017-10-21T03:04:56.073Z,21.55
2017-10-21T03:07:22.300Z,22.52
2017-10-21T03:09:49.143Z,23.48
2017-10-21T03:12:15.399Z,25.52
2017-10-21T03:14:41.650Z,21.33
2017-10-21T03:17:07.855Z,18.27
2017-10-21T03:19:34.079Z,21.08
2017-10-21T03:22:00.320Z,16.95
2017-10-21T03:24:26.696Z,27.13
2017-10-21T03:26:53.846Z,23.58
2017-10-21T03:29:21.430Z,23.42
2017-10-21T03:31:48.213Z,21.90
2017-10-21T03:34:14.668Z,21.17
2017-10-21T03:36:42.183Z,25.00
2017-10-21T03:39:09.006Z,20.10
2017-10-21T03:41:35.240Z,18.65
2017-10-21T03:44:01.960Z,18.90
2017-10-21T03:46:28.946Z,19.37
2017-10-21T03:48:55.147Z,19.12
2017-10-21T03:51:21.983Z,18.33
2017-10-21T03:53:49.014Z,23.17
2017-10-21T03:56:16.379Z,27.60
2017-10-21T03:58:43.780Z,23.98
2017-10-21T04:01:11.336Z,27.37
2017-10-21T04:03:38.098Z,21.08
2017-10-21T04:06:05.291Z,25.20
2017-10-21T04:08:32.320Z,20.58
2017-10-21T04:10:58.623Z,28.98
2017-10-21T04:13:25.598Z,18.80
2017-10-21T04:15:51.956Z,19.25
2017-10-21T04:18:19.627Z,20.88
2017-10-21T04:20:46.842Z,25.35
2017-10-21T04:23:13.466Z,21.95
2017-10-21T04:25:39.707Z,18.33
2017-10-21T04:28:06.471Z,16.70
2017-10-21T04:30:33.238Z,17.55
2017-10-21T04:32:59.456Z,21.85
2017-10-21T04:35:25.695Z,22.83
2017-10-21T04:37:52.488Z,17.10
2017-10-21T04:40:18.702Z,20.33
2017-10-21T04:42:44.893Z,22.15
2017-10-21T04:45:11.237Z,19.77
2017-10-21T04:47:38.982Z,19.27
2017-10-21T04:50:07.090Z,26.35
2017-10-21T04:52:34.343Z,22.00
2017-10-21T04:55:00.825Z,23.87
2017-10-21T04:57:27.677Z,20.90
2017-10-21T04:59:53.895Z,21.08
2017-10-21T05:02:20.112Z,24.70
2017-10-21T05:04:46.319Z,23.00
2017-10-21T05:07:13.438Z,21.02
2017-10-21T05:09:40.432Z,31.48
2017-10-21T05:12:06.679Z,34.25
2017-10-21T05:14:33.215Z,30.08
2017-10-21T05:17:00.225Z,30.80
2017-10-21T05:19:27.759Z,33.17
2017-10-21T05:21:54.701Z,24.75
2017-10-21T05:24:23.096Z,25.20
2017-10-21T05:26:49.782Z,22.98
2017-10-21T05:29:17.959Z,23.75
2017-10-21T05:31:45.521Z,26.48
2017-10-21T05:34:12.272Z,32.90
2017-10-21T05:36:39.465Z,27.42
2017-10-21T05:39:07.510Z,34.70
2017-10-21T05:41:35.041Z,29.42
2017-10-21T05:44:02.144Z,31.77
2017-10-21T05:46:29.048Z,27.87
2017-10-21T05:48:56.176Z,29.00
2017-10-21T05:51:22.420Z,26.87
2017-10-21T05:53:49.359Z,27.23
2017-10-21T05:56:15.826Z,17.75
2017-10-21T05:58:42.847Z,26.30
2017-10-21T06:01:09.843Z,27.85
2017-10-21T06:03:36.104Z,26.48
2017-10-21T06:06:02.487Z,33.28
2017-10-21T06:08:28.748Z,31.05
2017-10-21T06:10:55.496Z,25.50
2017-10-21T06:13:22.797Z,31.37
2017-10-21T06:15:49.025Z,28.42
2017-10-21T06:18:16.198Z,27.58
2017-10-21T06:20:42.483Z,32.85
2017-10-21T06:23:09.982Z,27.95
2017-10-21T06:25:36.751Z,35.92
2017-10-21T06:28:03.502Z,26.08
2017-10-21T06:30:30.760Z,25.50
2017-10-21T06:32:57.870Z,26.05
2017-10-21T06:35:24.769Z,31.15
2017-10-21T06:37:51.914Z,27.83
2017-10-21T06:40:18.901Z,33.95
2017-10-21T06:42:45.947Z,33.90
2017-10-21T06:45:13.623Z,34.55
2017-10-21T06:47:39.863Z,40.12
2017-10-21T06:50:06.785Z,37.45
2017-10-21T06:52:33.658Z,30.33
2017-10-21T06:55:01.045Z,37.28
2017-10-21T06:57:27.339Z,33.05
2017-10-21T06:59:54.515Z,30.80
2017-10-21T07:02:21.480Z,28.80
2017-10-21T07:04:47.744Z,31.23
2017-10-21T07:07:14.153Z,30.75
2017-10-21T07:09:41.191Z,40.33
2017-10-21T07:12:07.484Z,35.67
2017-10-21T07:14:34.424Z,32.60
2017-10-21T07:17:00.666Z,36.97
2017-10-21T07:19:28.121Z,29.10
2017-10-21T07:21:54.461Z,25.73
2017-10-21T07:24:22.915Z,29.75
2017-10-21T07:26:49.254Z,26.35
2017-10-21T07:29:15.662Z,33.75
2017-10-21T07:31:42.043Z,36.22
2017-10-21T07:34:09.686Z,37.30
2017-10-21T07:36:37.056Z,34.10
2017-10-21T07:39:04.294Z,39.58
2017-10-21T07:41:32.262Z,31.95
2017-10-21T07:43:58.478Z,33.20
2017-10-21T07:46:25.825Z,41.03
2017-10-21T07:48:52.527Z,36.20
2017-10-21T07:51:18.923Z,34.13
2017-10-21T07:53:46.599Z,31.90
2017-10-21T07:56:13.966Z,35.65
2017-10-21T07:58:41.014Z,34.97
2017-10-21T08:01:07.752Z,39.17
2017-10-21T08:03:34.801Z,32.22
2017-10-21T08:06:01.623Z,31.00
2017-10-21T08:08:29.674Z,25.40
2017-10-21T08:10:57.471Z,33.70
2017-10-21T08:13:23.754Z,28.90
2017-10-21T08:15:49.968Z,29.37
2017-10-21T08:18:16.719Z,29.00
2017-10-21T08:20:43.561Z,27.13
2017-10-21T08:23:10.782Z,22.47
2017-10-21T08:25:37.272Z,27.83
2017-10-21T08:28:04.238Z,26.37
2017-10-21T08:30:31.434Z,25.47
2017-10-21T08:32:57.730Z,22.60
2017-10-21T08:35:23.986Z,20.80
2017-10-21T08:37:50.810Z,22.90
2017-10-21T08:40:17.024Z,21.37
2017-10-21T08:42:43.658Z,20.77
2017-10-21T08:45:11.712Z,23.33
2017-10-21T08:47:38.823Z,24.43
2017-10-21T08:50:05.833Z,20.83
2017-10-21T08:52:32.641Z,22.10
2017-10-21T08:54:59.611Z,22.30
2017-10-21T08:57:26.452Z,22.77
2017-10-21T08:59:53.216Z,20.80
2017-10-21T09:02:19.996Z,21.80
2017-10-21T09:04:46.827Z,21.70
2017-10-21T09:07:13.363Z,23.97
2017-10-21T09:09:40.413Z,21.83
2017-10-21T09:12:07.189Z,21.03
2017-10-21T09:14:33.452Z,20.20
2017-10-21T09:17:00.523Z,19.67
2017-10-21T09:19:28.511Z,20.03
2017-10-21T09:21:54.846Z,17.77
2017-10-21T09:24:21.891Z,21.40
2017-10-21T09:26:49.840Z,20.53
2017-10-21T09:29:16.799Z,20.93
2017-10-21T09:31:43.537Z,22.37
2017-10-21T09:34:11.712Z,22.00
2017-10-21T09:36:38.742Z,22.60
2017-10-21T09:39:05.043Z,22.40
2017-10-21T09:41:31.812Z,19.57
2017-10-21T09:43:58.372Z,18.37
2017-10-21T09:46:25.352Z,22.30
2017-10-21T09:48:51.701Z,22.53
2017-10-21T09:51:17.930Z,22.50
2017-10-21T09:53:44.680Z,21.10
2017-10-21T09:56:11.442Z,22.90
2017-10-21T09:58:38.164Z,21.30
2017-10-21T10:01:04.923Z,23.70
2017-10-21T10:03:32.673Z,21.87
2017-10-21T10:05:58.911Z,22.20
2017-10-21T10:08:26.138Z,21.83
2017-10-21T10:10:52.896Z,22.30
2017-10-21T10:13:19.134Z,22.33
2017-10-21T10:15:45.335Z,22.30
2017-10-21T10:18:11.675Z,20.33
2017-10-21T10:20:39.522Z,23.07
2017-10-21T10:23:06.283Z,20.80
2017-10-21T10:25:33.075Z,22.23
2017-10-21T10:27:59.842Z,23.10
2017-10-21T10:30:26.510Z,21.73
2017-10-21T10:32:54.116Z,20.90
2017-10-21T10:35:21.593Z,23.30
2017-10-21T10:37:49.177Z,21.93
2017-10-21T10:40:15.929Z,23.60
2017-10-21T10:42:43.649Z,22.47
2017-10-21T10:45:10.889Z,22.40
2017-10-21T10:47:37.631Z,23.40
2017-10-21T10:50:10.719Z,22.70
2017-10-21T10:52:37.081Z,25.23
2017-10-21T10:55:03.834Z,22.40
2017-10-21T10:57:30.410Z,23.20
2017-10-21T10:59:57.994Z,21.43
2017-10-21T11:02:24.710Z,20.53
2017-10-21T11:04:51.922Z,20.60
2017-10-21T11:07:19.445Z,21.83
2017-10-21T11:09:45.705Z,22.27
2017-10-21T11:12:12.354Z,21.60
2017-10-21T11:14:39.282Z,23.77
2017-10-21T11:17:06.667Z,21.13
2017-10-21T11:19:33.655Z,20.37
2017-10-21T11:22:00.080Z,23.03
2017-10-21T11:24:27.767Z,22.17
2017-10-21T11:26:54.499Z,22.13
2017-10-21T11:29:21.585Z,22.67
2017-10-21T11:31:49.111Z,22.53
2017-10-21T11:34:16.281Z,22.33
2017-10-21T11:36:43.655Z,22.13
2017-10-21T11:39:10.020Z,20.60
2017-10-21T11:41:36.330Z,21.30
2017-10-21T11:44:03.305Z,22.03
2017-10-21T11:46:29.491Z,21.93
2017-10-21T11:48:56.816Z,20.47
2017-10-21T11:51:23.087Z,21.97
2017-10-21T11:53:50.758Z,20.47
2017-10-21T11:56:17.697Z,21.47
2017-10-21T11:58:45.219Z,20.87
2017-10-21T12:01:12.031Z,20.53
2017-10-21T12:03:39.513Z,19.50
2017-10-21T12:06:06.531Z,19.43
2017-10-21T12:08:33.991Z,21.03
2017-10-21T12:11:01.233Z,18.50
2017-10-21T12:13:27.605Z,19.63
2017-10-21T12:15:53.866Z,20.50
2017-10-21T12:18:20.903Z,19.63
2017-10-21T12:20:47.862Z,20.83
2017-10-21T12:23:14.824Z,18.30
2017-10-21T12:25:41.050Z,18.43
2017-10-21T12:28:07.302Z,21.73
2017-10-21T12:30:34.315Z,20.63
2017-10-21T12:33:00.924Z,21.97
2017-10-21T12:35:27.908Z,21.40
2017-10-21T12:37:54.252Z,21.27
2017-10-21T12:40:21.165Z,23.20
2017-10-21T12:42:48.733Z,21.20
2017-10-21T12:45:14.974Z,20.97
2017-10-21T12:47:41.684Z,21.37
2017-10-21T12:50:08.763Z,22.13
2017-10-21T12:52:35.623Z,22.07
2017-10-21T12:55:02.141Z,22.27
2017-10-21T12:57:28.482Z,23.67
2017-10-21T12:59:54.676Z,22.47
2017-10-21T13:02:20.959Z,22.80
2017-10-21T13:04:47.162Z,22.03
2017-10-21T13:07:13.367Z,21.80
2017-10-21T13:09:40.088Z,23.00
2017-10-21T13:12:07.179Z,22.83
2017-10-21T13:14:33.383Z,19.93
2017-10-21T13:17:00.148Z,18.97
2017-10-21T13:19:26.343Z,21.67
2017-10-21T13:21:52.575Z,21.20
2017-10-21T13:24:19.412Z,22.80
2017-10-21T13:26:45.688Z,21.83
2017-10-21T13:29:12.699Z,19.20
2017-10-21T13:31:39.802Z,19.27
2017-10-21T13:34:06.027Z,20.87
2017-10-21T13:36:32.374Z,18.47
2017-10-21T13:38:59.356Z,20.20
2017-10-21T13:41:26.597Z,20.70
2017-10-21T13:43:53.439Z,20.77
2017-10-21T13:46:20.351Z,16.00
2017-10-21T13:48:48.580Z,20.20
2017-10-21T13:51:15.365Z,21.57
2017-10-21T13:53:41.610Z,23.27
2017-10-21T13:56:09.151Z,21.90
2017-10-21T13:58:35.380Z,24.10
2017-10-21T14:01:02.161Z,25.90
2017-10-21T14:03:28.396Z,19.63
2017-10-21T14:05:56.611Z,22.00
2017-10-21T14:08:23.638Z,21.30
2017-10-21T14:10:50.541Z,21.30
2017-10-21T14:13:17.426Z,20.00
2017-10-21T14:15:43.868Z,19.73
2017-10-21T14:18:11.073Z,16.00
2017-10-21T14:20:37.307Z,20.60
2017-10-21T14:23:03.799Z,18.80
2017-10-21T14:25:31.077Z,14.83
2017-10-21T14:27:58.704Z,17.07
2017-10-21T14:30:24.952Z,13.10
2017-10-21T14:32:51.907Z,17.10
2017-10-21T14:35:19.748Z,14.50
2017-10-21T14:37:46.763Z,20.00
2017-10-21T14:40:13.539Z,17.20
2017-10-21T14:42:40.130Z,18.90
2017-10-21T14:45:07.152Z,16.17
2017-10-21T14:47:34.070Z,16.90
2017-10-21T14:50:01.242Z,18.90
2017-10-21T14:52:27.507Z,20.40
2017-10-21T14:54:54.370Z,19.87
2017-10-21T14:57:21.126Z,15.83
2017-10-21T14:59:48.440Z,22.20
2017-10-21T15:02:14.837Z,17.80
2017-10-21T15:17:41.874Z,24.13
2017-10-21T15:20:08.557Z,21.70
2017-10-21T15:22:35.573Z,20.50
2017-10-21T15:25:01.888Z,23.13
2017-10-21T15:27:28.349Z,24.00
2017-10-21T15:29:54.728Z,25.40
2017-10-21T15:32:22.605Z,23.93
2017-10-21T15:34:49.727Z,23.27
2017-10-21T15:37:16.146Z,24.00
2017-10-21T15:39:42.931Z,19.83
2017-10-21T15:42:09.403Z,23.90
2017-10-21T15:44:36.792Z,29.90
2017-10-21T15:47:03.342Z,26.33
2017-10-21T15:49:30.900Z,26.93
2017-10-21T15:51:58.627Z,26.60
2017-10-21T15:54:24.867Z,21.03
2017-10-21T15:56:51.225Z,21.97
2017-10-21T15:59:18.242Z,24.00
2017-10-21T16:01:44.475Z,21.20
2017-10-21T16:04:10.677Z,21.40
2017-10-21T16:06:37.089Z,21.57
2017-10-21T16:09:04.469Z,28.40
2017-10-21T16:11:30.960Z,21.90
2017-10-21T16:13:58.098Z,21.53
2017-10-21T16:16:25.069Z,22.10
2017-10-21T16:18:51.453Z,27.43
2017-10-21T16:21:18.257Z,27.87
2017-10-21T16:23:44.997Z,27.60
2017-10-21T16:26:11.231Z,22.50
2017-10-21T16:28:37.817Z,29.60
2017-10-21T16:31:05.111Z,27.40
2017-10-21T16:33:31.371Z,26.43
2017-10-21T16:35:58.258Z,27.80
2017-10-21T16:38:24.880Z,30.10
2017-10-21T16:40:51.958Z,27.77
2017-10-21T16:43:18.233Z,28.10
2017-10-21T16:45:46.109Z,24.40
2017-10-21T16:48:13.149Z,25.40
2017-10-21T16:50:40.250Z,26.40
2017-10-21T16:53:06.701Z,25.77
2017-10-21T16:55:32.906Z,24.90
2017-10-21T16:57:59.795Z,23.37
2017-10-21T17:00:26.050Z,19.17
2017-10-21T17:02:53.576Z,24.70
2017-10-21T17:05:19.848Z,23.33
2017-10-21T17:07:46.851Z,20.57
2017-10-21T17:10:13.042Z,18.60
2017-10-21T17:12:39.311Z,23.33
2017-10-21T17:15:05.528Z,25.60
2017-10-21T17:17:31.790Z,25.97
2017-10-21T17:19:59.072Z,23.60
2017-10-21T17:22:26.364Z,23.40
2017-10-21T17:24:53.416Z,23.83
2017-10-21T17:27:20.069Z,20.60
2017-10-21T17:29:46.330Z,24.53
2017-10-21T17:32:14.090Z,23.70
2017-10-21T17:34:41.108Z,23.57
2017-10-21T17:37:07.888Z,21.63
2017-10-21T17:39:34.139Z,27.60
2017-10-21T17:42:01.427Z,29.60
2017-10-21T17:44:27.908Z,30.40
2017-10-21T17:46:55.613Z,26.33
2017-10-21T17:49:22.381Z,24.30
2017-10-21T17:51:56.307Z,24.93
2017-10-21T17:54:25.111Z,24.10
2017-10-21T17:56:51.982Z,28.13
2017-10-21T17:59:18.454Z,28.20
2017-10-21T18:01:46.535Z,29.00
2017-10-21T18:04:13.080Z,27.90
2017-10-21T18:06:46.326Z,28.03
2017-10-21T18:09:13.071Z,27.83
2017-10-21T18:11:39.651Z,27.00
2017-10-21T18:14:07.504Z,27.93
2017-10-21T18:16:35.042Z,25.43
2017-10-21T18:19:01.468Z,21.97
2017-10-21T18:21:27.677Z,21.30
2017-10-21T18:23:54.052Z,23.17
2017-10-21T18:26:21.101Z,24.50
2017-10-21T18:28:48.558Z,26.00
2017-10-21T18:31:15.672Z,22.53
2017-10-21T18:33:42.961Z,24.57
2017-10-21T18:36:10.228Z,29.10
2017-10-21T18:38:36.663Z,26.00
2017-10-21T18:41:04.396Z,27.30
2017-10-21T18:43:32.587Z,23.83
2017-10-21T18:45:59.481Z,28.23
2017-10-21T18:48:26.863Z,26.10
2017-10-21T18:50:54.693Z,29.23
2017-10-21T18:53:22.175Z,27.90
2017-10-21T18:55:48.395Z,25.33
2017-10-21T18:58:14.611Z,32.20
2017-10-21T19:00:41.508Z,29.70
2017-10-21T19:03:08.807Z,29.33
2017-10-21T19:05:35.828Z,30.97
2017-10-21T19:08:03.062Z,29.20
2017-10-21T19:10:30.003Z,27.90
2017-10-21T19:12:57.057Z,25.57
2017-10-21T19:15:24.089Z,29.23
2017-10-21T19:17:51.129Z,30.17
2017-10-21T19:20:18.602Z,33.87
2017-10-21T19:22:45.253Z,28.60
2017-10-21T19:25:12.546Z,30.80
2017-10-21T19:27:39.588Z,29.40
2017-10-21T19:30:06.421Z,28.20
2017-10-21T19:32:33.057Z,26.70
2017-10-21T19:34:59.363Z,28.20
2017-10-21T19:37:26.228Z,27.00
2017-10-21T19:39:53.318Z,26.33
2017-10-21T19:42:20.359Z,25.63
2017-10-21T19:44:46.583Z,22.83
2017-10-21T19:47:12.845Z,24.90
2017-10-21T19:49:39.055Z,24.77
2017-10-21T19:52:06.217Z,26.60
2017-10-21T19:54:33.407Z,27.20
2017-10-21T19:56:59.616Z,28.60
2017-10-21T19:59:26.408Z,29.50
2017-10-21T20:01:52.668Z,31.73
2017-10-21T20:04:18.894Z,35.07
2017-10-21T20:06:46.016Z,33.20
2017-10-21T20:09:13.010Z,28.80
2017-10-21T20:11:39.541Z,31.40
2017-10-21T20:14:07.356Z,31.23
2017-10-21T20:16:35.125Z,32.90
2017-10-21T20:19:02.110Z,29.07
2017-10-21T20:21:28.330Z,34.03
2017-10-21T20:23:54.578Z,29.90
2017-10-21T20:26:20.787Z,30.33
2017-10-21T20:28:47.705Z,26.70
2017-10-21T20:31:14.627Z,25.80
2017-10-21T20:33:40.863Z,32.90
2017-10-21T20:36:08.322Z,30.23
2017-10-21T20:38:35.579Z,29.73
2017-10-21T20:41:02.552Z,29.63
2017-10-21T20:43:29.486Z,24.83
2017-10-21T20:45:56.472Z,32.77
2017-10-21T20:48:23.874Z,31.03
2017-10-21T20:50:50.644Z,33.70
2017-10-21T20:53:16.904Z,30.00
2017-10-21T20:55:43.185Z,28.67
2017-10-21T20:58:10.538Z,32.55
2017-10-21T21:00:39.880Z,24.70
2017-10-21T21:03:07.062Z,23.80
2017-10-21T21:05:34.681Z,26.73
2017-10-21T21:08:01.026Z,30.90
2017-10-21T21:10:27.251Z,26.27
2017-10-21T21:12:54.753Z,22.93
2017-10-21T21:15:22.464Z,27.10
2017-10-21T21:17:48.690Z,25.60
2017-10-21T21:20:14.934Z,33.57
2017-10-21T21:22:41.132Z,34.80
2017-10-21T21:25:07.359Z,25.83
2017-10-21T21:27:33.710Z,27.20
2017-10-21T21:30:01.047Z,26.87
2017-10-21T21:32:27.537Z,26.07
2017-10-21T21:34:54.508Z,29.25
2017-10-21T21:37:20.735Z,24.05
2017-10-21T21:39:46.948Z,28.77
2017-10-21T21:42:13.933Z,28.00
2017-10-21T21:44:40.151Z,30.73
2017-10-21T21:47:06.339Z,29.30
2017-10-21T21:49:33.323Z,26.92
2017-10-21T21:52:00.356Z,28.10
2017-10-21T21:54:26.590Z,27.63
2017-10-21T21:56:52.927Z,26.67
2017-10-21T21:59:19.358Z,25.00
2017-10-21T22:01:45.613Z,22.75
2017-10-21T22:04:12.936Z,25.55
2017-10-21T22:06:39.705Z,22.02
2017-10-21T22:09:06.186Z,25.75
2017-10-21T22:11:33.736Z,23.45
2017-10-21T22:14:01.157Z,20.65
2017-10-21T22:16:27.371Z,23.45
2017-10-21T22:18:54.160Z,26.70
2017-10-21T22:21:21.154Z,25.92
2017-10-21T22:23:47.353Z,21.45
2017-10-21T22:26:14.306Z,21.80
2017-10-21T22:28:41.160Z,21.58
2017-10-21T22:31:07.413Z,22.10
2017-10-21T22:33:33.660Z,24.80
2017-10-21T22:35:59.864Z,19.37
2017-10-21T22:38:26.055Z,19.45
2017-10-21T22:40:53.496Z,19.52
2017-10-21T22:43:20.916Z,24.12
2017-10-21T22:45:47.929Z,21.05
2017-10-21T22:48:14.161Z,23.25
2017-10-21T22:50:41.068Z,27.00
2017-10-21T22:53:08.487Z,26.37
2017-10-21T22:55:36.292Z,27.73
2017-10-21T22:58:03.767Z,24.60
2017-10-21T23:00:30.558Z,22.77
2017-10-21T23:02:57.849Z,27.05
2017-10-21T23:05:25.346Z,32.42
2017-10-21T23:07:52.411Z,31.50
2017-10-21T23:10:19.314Z,26.80
2017-10-21T23:12:45.882Z,30.42
2017-10-21T23:15:12.904Z,29.55
2017-10-21T23:17:39.136Z,29.48
2017-10-21T23:20:05.938Z,36.70
2017-10-21T23:22:33.838Z,33.60
2017-10-21T23:25:00.656Z,34.42
2017-10-21T23:27:28.236Z,40.53
2017-10-21T23:29:54.447Z,34.50
2017-10-21T23:32:21.070Z,29.00
2017-10-21T23:34:48.387Z,32.47
2017-10-21T23:37:14.650Z,32.97
2017-10-21T23:39:40.854Z,30.63
2017-10-21T23:42:07.909Z,35.70
2017-10-21T23:44:34.091Z,29.50
2017-10-21T23:47:00.356Z,21.63
2017-10-21T23:49:26.583Z,33.25
2017-10-21T23:51:53.444Z,33.25
2017-10-21T23:54:19.685Z,36.03
2017-10-21T23:56:47.659Z,33.38
2017-10-21T23:59:14.603Z,34.73
